createdAt,value
2023-10-25T00:02:35.965Z,98781.72
2023-10-25T00:07:37.715Z,98821.94
2023-10-25T00:12:39.415Z,98803.47
2023-10-25T00:17:41.725Z,98836.91
2023-10-25T00:22:43.425Z,98813.22
2023-10-25T00:27:45.848Z,98816.56
2023-10-25T00:32:48.606Z,98871.00
2023-10-25T00:37:50.301Z,98778.78
2023-10-25T00:42:52.006Z,98830.47
2023-10-25T00:47:53.707Z,98771.63
2023-10-25T00:52:55.452Z,98802.28
2023-10-25T00:57:57.180Z,98754.88
2023-10-25T01:03:00.458Z,98746.59
2023-10-25T01:08:02.222Z,98847.56
2023-10-25T01:13:03.992Z,98697.91
2023-10-25T01:18:05.738Z,98740.94
2023-10-25T01:23:07.868Z,98766.78
2023-10-25T01:28:10.022Z,98899.38
2023-10-25T01:33:11.895Z,98783.16
2023-10-25T01:38:13.645Z,98748.44
2023-10-25T01:43:15.463Z,98751.69
2023-10-25T01:48:17.186Z,98715.63
2023-10-25T01:53:18.928Z,98719.38
2023-10-25T01:58:20.653Z,98749.66
2023-10-25T02:03:22.504Z,98768.78
2023-10-25T02:08:24.257Z,98822.34
2023-10-25T02:13:25.902Z,98862.91
2023-10-25T02:18:27.625Z,98845.03
2023-10-25T02:23:29.286Z,98785.91
2023-10-25T02:28:30.978Z,98796.41
2023-10-25T02:33:32.671Z,98724.56
2023-10-25T02:38:34.328Z,98636.72
2023-10-25T02:43:36.083Z,98622.94
2023-10-25T02:48:38.345Z,98518.25
2023-10-25T02:53:40.051Z,98654.50
2023-10-25T02:58:41.729Z,98679.66
2023-10-25T03:03:43.442Z,98584.13
2023-10-25T03:08:45.199Z,98565.13
2023-10-25T03:13:47.571Z,98653.22
2023-10-25T03:18:49.400Z,98623.31
2023-10-25T03:23:51.372Z,98726.91
2023-10-25T03:28:53.108Z,98595.13
2023-10-25T03:33:54.815Z,98618.41
2023-10-25T03:38:56.560Z,98597.47
2023-10-25T03:43:58.253Z,98697.66
2023-10-25T03:49:00.006Z,98617.03
2023-10-25T03:54:01.781Z,98736.72
2023-10-25T03:59:03.418Z,98601.66
2023-10-25T04:04:05.505Z,98615.81
2023-10-25T04:09:09.383Z,98565.34
2023-10-25T04:14:11.043Z,98596.69
2023-10-25T04:19:13.457Z,98728.69
2023-10-25T04:24:15.122Z,98559.84
2023-10-25T04:29:16.806Z,98633.34
2023-10-25T04:34:18.486Z,98588.44
2023-10-25T04:39:20.149Z,98588.06
2023-10-25T04:44:21.856Z,98629.03
2023-10-25T04:49:23.586Z,98726.16
2023-10-25T04:54:25.210Z,98554.16
2023-10-25T04:59:29.705Z,98579.91
2023-10-25T05:04:31.812Z,98441.28
2023-10-25T05:09:33.989Z,98463.19
2023-10-25T05:14:36.565Z,98425.88
2023-10-25T05:19:38.445Z,98380.13
2023-10-25T05:24:40.368Z,98393.25
2023-10-25T05:29:42.456Z,98480.75
2023-10-25T05:34:44.751Z,98498.25
2023-10-25T05:39:46.755Z,98380.94
2023-10-25T05:44:49.514Z,98409.06
2023-10-25T05:49:51.920Z,98404.00
2023-10-25T05:54:53.906Z,98555.31
2023-10-25T05:59:55.914Z,98296.28
2023-10-25T06:04:58.956Z,98343.13
2023-10-25T06:10:00.940Z,98357.38
2023-10-25T06:15:03.460Z,98339.00
2023-10-25T06:20:05.871Z,98420.25
2023-10-25T06:25:13.183Z,98385.06
2023-10-25T06:30:15.669Z,98367.84
2023-10-25T06:35:17.462Z,98357.88
2023-10-25T06:40:19.597Z,98466.34
2023-10-25T06:45:22.498Z,98457.84
2023-10-25T06:50:26.422Z,98367.19
2023-10-25T06:55:28.549Z,98405.97
2023-10-25T07:00:30.531Z,98291.25
2023-10-25T07:05:32.692Z,98275.59
2023-10-25T07:10:34.737Z,98348.38
2023-10-25T07:15:37.049Z,98329.16
2023-10-25T07:20:38.694Z,98461.16
2023-10-25T07:25:40.542Z,98394.59
2023-10-25T07:30:42.309Z,98277.75
2023-10-25T07:35:44.210Z,98455.19
2023-10-25T07:40:45.866Z,98400.25
2023-10-25T07:45:47.726Z,98242.31
2023-10-25T07:50:49.420Z,98256.25
2023-10-25T08:00:56.839Z,98307.38
2023-10-25T08:05:58.674Z,98312.25
2023-10-25T08:11:04.790Z,98320.88
2023-10-25T08:16:06.586Z,98304.41
2023-10-25T08:21:14.025Z,98353.59
2023-10-25T08:26:15.788Z,98342.75
2023-10-25T08:31:18.801Z,98290.25
2023-10-25T08:36:20.552Z,98296.06
2023-10-25T08:41:26.266Z,98316.94
2023-10-25T08:46:29.289Z,98245.00
2023-10-25T08:51:31.004Z,98325.44
2023-10-25T08:56:32.646Z,98321.28
2023-10-25T09:01:35.204Z,98371.66
2023-10-25T09:06:37.009Z,98302.63
2023-10-25T09:11:43.946Z,98259.66
2023-10-25T09:16:46.454Z,98317.13
2023-10-25T09:21:48.086Z,98212.50
2023-10-25T09:26:49.750Z,98323.47
2023-10-25T09:31:53.288Z,98245.38
2023-10-25T09:36:55.007Z,98237.44
2023-10-25T09:41:59.555Z,98370.44
2023-10-25T09:47:04.556Z,98273.91
2023-10-25T09:52:26.347Z,98260.13
2023-10-25T09:57:30.686Z,98186.97
2023-10-25T10:02:55.687Z,98226.91
2023-10-25T10:08:18.041Z,98058.56
2023-10-25T10:13:21.706Z,98085.06
2023-10-25T10:18:23.436Z,98107.22
2023-10-25T10:23:37.611Z,98085.31
2023-10-25T10:28:44.420Z,98085.13
2023-10-25T10:33:47.476Z,98118.50
2023-10-25T10:39:11.651Z,98014.19
2023-10-25T10:44:13.396Z,98075.41
2023-10-25T10:49:20.001Z,98066.25
2023-10-25T10:54:21.698Z,98149.75
2023-10-25T10:59:25.735Z,98007.84
2023-10-25T11:06:12.892Z,97919.69
2023-10-25T11:11:14.607Z,97987.34
2023-10-25T11:16:17.505Z,97833.66
2023-10-25T11:21:19.114Z,97883.13
2023-10-25T11:26:20.712Z,97916.63
2023-10-25T11:31:23.285Z,97857.19
2023-10-25T11:36:28.959Z,97820.47
2023-10-25T11:41:30.594Z,97801.06
2023-10-25T11:46:39.800Z,97821.63
2023-10-25T11:51:41.552Z,97860.91
2023-10-25T11:56:43.403Z,97904.69
2023-10-25T12:01:45.813Z,97762.69
2023-10-25T12:06:47.538Z,97886.63
2023-10-25T12:11:49.232Z,97938.72
2023-10-25T12:16:50.882Z,97930.84
2023-10-25T12:21:57.390Z,97844.31
2023-10-25T12:26:59.480Z,97907.88
2023-10-25T12:32:01.785Z,97979.31
2023-10-25T12:37:03.504Z,97888.81
2023-10-25T12:42:05.673Z,97803.16
2023-10-25T12:47:08.174Z,97806.91
2023-10-25T12:52:10.134Z,97862.09
2023-10-25T12:57:11.842Z,97802.75
2023-10-25T13:02:13.541Z,97850.97
2023-10-25T13:07:15.552Z,97826.16
2023-10-25T13:12:17.248Z,97747.19
2023-10-25T13:17:20.729Z,97800.66
2023-10-25T13:22:24.190Z,97742.56
2023-10-25T13:27:26.168Z,97723.47
2023-10-25T13:32:28.570Z,97730.78
2023-10-25T13:37:30.324Z,97742.00
2023-10-25T13:42:31.973Z,97744.41
2023-10-25T13:47:33.972Z,97778.69
2023-10-25T13:52:38.257Z,97659.63
2023-10-25T13:57:39.874Z,97709.44
2023-10-25T14:02:41.799Z,97701.28
2023-10-25T14:07:43.837Z,97746.41
2023-10-25T14:12:45.447Z,97762.47
2023-10-25T14:17:47.264Z,97682.34
2023-10-25T14:22:48.980Z,97676.66
2023-10-25T14:27:50.817Z,97706.75
2023-10-25T14:32:52.553Z,97811.31
2023-10-25T14:37:54.263Z,97725.28
2023-10-25T14:42:56.042Z,97676.78
2023-10-25T14:47:57.831Z,97646.69
2023-10-25T14:52:59.541Z,97774.88
2023-10-25T14:58:01.569Z,97769.50
2023-10-25T15:03:03.413Z,97799.22
2023-10-25T15:08:05.174Z,97676.44
2023-10-25T15:13:06.983Z,97692.31
2023-10-25T15:18:08.762Z,97620.03
2023-10-25T15:23:10.472Z,97656.44
2023-10-25T15:28:12.369Z,97607.41
2023-10-25T15:33:14.735Z,97673.28
2023-10-25T15:38:16.556Z,97565.72
2023-10-25T15:43:18.196Z,97771.38
2023-10-25T15:48:19.979Z,97658.84
2023-10-25T15:53:21.634Z,97733.63
2023-10-25T15:58:23.361Z,97714.94
2023-10-25T16:03:25.165Z,97618.88
2023-10-25T16:08:27.631Z,97756.50
2023-10-25T16:13:29.312Z,97677.19
2023-10-25T16:18:34.728Z,97716.34
2023-10-25T16:23:42.898Z,97611.63
2023-10-25T16:28:46.221Z,97700.06
2023-10-25T16:38:50.369Z,97648.19
2023-10-25T16:43:52.430Z,97803.22
2023-10-25T16:48:54.117Z,97831.88
2023-10-25T16:53:55.814Z,97675.00
2023-10-25T16:58:58.006Z,97626.56
2023-10-25T17:03:59.741Z,97735.53
2023-10-25T17:09:01.659Z,97689.72
2023-10-25T17:14:03.981Z,97724.59
2023-10-25T17:19:05.706Z,97631.72
2023-10-25T17:24:10.296Z,97784.09
2023-10-25T17:29:14.527Z,97643.84
2023-10-25T17:34:16.279Z,97768.16
2023-10-25T17:39:18.552Z,97875.69
2023-10-25T17:44:21.361Z,97783.19
2023-10-25T17:49:23.216Z,97784.69
2023-10-25T17:54:25.389Z,97753.06
2023-10-25T17:59:29.101Z,97823.03
2023-10-25T18:04:31.632Z,97818.19
2023-10-25T18:09:33.849Z,97808.00
2023-10-25T18:14:38.579Z,97827.00
2023-10-25T18:19:40.262Z,97803.03
2023-10-25T18:24:43.517Z,97862.59
2023-10-25T18:30:02.588Z,97947.19
2023-10-25T18:35:10.179Z,97927.78
2023-10-25T18:40:12.244Z,97947.94
2023-10-25T18:45:14.626Z,97873.81
2023-10-25T18:50:16.548Z,98035.19
2023-10-25T18:55:18.347Z,97893.69
2023-10-25T19:00:22.141Z,98089.44
2023-10-25T19:06:29.342Z,98027.66
2023-10-25T19:10:46.206Z,98060.69
2023-10-25T19:15:47.964Z,98032.19
2023-10-25T19:20:49.817Z,97980.41
2023-10-25T19:25:51.554Z,97951.75
2023-10-25T19:30:53.460Z,97945.91
2023-10-25T19:35:55.406Z,97960.63
2023-10-25T19:40:57.384Z,97971.91
2023-10-25T19:45:59.849Z,98064.22
2023-10-25T19:51:01.630Z,98072.75
2023-10-25T19:56:03.622Z,98012.34
2023-10-25T20:01:05.329Z,98095.03
2023-10-25T20:06:10.576Z,98087.06
2023-10-25T20:11:12.239Z,98152.19
2023-10-25T20:16:13.979Z,98049.53
2023-10-25T20:21:15.760Z,98058.75
2023-10-25T20:26:29.794Z,98094.75
2023-10-25T20:31:34.933Z,98212.81
2023-10-25T20:36:37.298Z,98117.78
2023-10-25T20:41:38.950Z,98178.41
2023-10-25T20:46:40.670Z,98093.75
2023-10-25T20:51:42.334Z,98153.22
2023-10-25T20:56:44.064Z,98064.06
2023-10-25T21:01:45.847Z,98251.94
2023-10-25T21:06:47.485Z,98045.97
2023-10-25T21:11:49.521Z,98060.13
2023-10-25T21:16:51.188Z,98124.16
2023-10-25T21:21:56.715Z,98146.81
2023-10-25T21:26:58.381Z,98069.53
2023-10-25T21:32:00.163Z,98066.50
2023-10-25T21:37:01.799Z,98232.81
2023-10-25T21:42:04.106Z,98118.06
2023-10-25T21:47:05.909Z,98087.00
2023-10-25T21:52:09.490Z,98189.69
2023-10-25T21:57:11.311Z,98202.19
2023-10-25T22:02:13.012Z,98099.16
2023-10-25T22:07:14.691Z,98115.81
2023-10-25T22:12:17.258Z,98145.31
2023-10-25T22:17:18.921Z,98146.56
2023-10-25T22:22:20.652Z,98165.06
2023-10-25T22:27:22.401Z,98217.03
2023-10-25T22:32:24.420Z,98123.88
2023-10-25T22:37:26.121Z,98188.03
2023-10-25T22:42:27.815Z,98229.81
2023-10-25T22:47:29.533Z,98131.72
2023-10-25T22:52:31.414Z,98241.03
2023-10-25T22:57:33.057Z,98200.06
2023-10-25T23:02:34.742Z,98194.38
2023-10-25T23:07:36.395Z,98188.78
2023-10-25T23:12:38.078Z,98264.16
2023-10-25T23:17:39.957Z,98250.59
2023-10-25T23:22:41.731Z,98318.84
2023-10-25T23:27:43.460Z,98230.78
2023-10-25T23:32:45.247Z,98248.13
2023-10-25T23:37:46.952Z,98242.28
2023-10-25T23:42:49.008Z,98203.59
2023-10-25T23:47:51.152Z,98274.88
2023-10-25T23:52:52.843Z,98236.94
2023-10-25T23:57:54.543Z,98214.28
